Time;durP1;ratioP1;P1;durP2;ratioP2;P2;SDS_P1;SDS_P2;PMS_P1;PMS_P2;Temp;Humidity;BMP_temperature;BMP_pressure;BME280_temperature;BME280_humidity;BME280_pressure;Samples;Min_cycle;Max_cycle;Signal;HPM_P1;HPM_P2
2021/05/07 00:01:10;;;;;;;9.35;5.60;;;384.20;1433.60;;;;;;5053489;28;20100;-69
2021/05/07 00:03:37;;;;;;;11.00;4.88;;;384.20;1408.00;;;;;;5054304;28;20029;-69
2021/05/07 00:06:04;;;;;;;10.88;5.68;;;384.10;1433.60;;;;;;5054177;28;20096;-69
2021/05/07 00:08:38;;;;;;;11.30;6.38;;;384.10;1433.60;;;;;;5054512;28;20036;-69
2021/05/07 00:11:15;;;;;;;8.05;5.47;;;384.10;1433.60;;;;;;5054425;28;20104;-69
2021/05/07 00:13:41;;;;;;;10.95;5.85;;;384.10;1433.60;;;;;;5054759;28;20072;-68
2021/05/07 00:16:07;;;;;;;11.05;5.85;;;384.20;1433.60;;;;;;5053969;28;20078;-69
2021/05/07 00:18:34;;;;;;;12.23;6.68;;;384.20;1433.60;;;;;;5054072;28;20115;-69
2021/05/07 00:21:00;;;;;;;12.80;6.55;;;384.20;1433.60;;;;;;5054505;28;20028;-69
2021/05/07 00:23:26;;;;;;;14.15;6.82;;;384.10;1433.60;;;;;;5053813;28;20481;-69
2021/05/07 00:25:52;;;;;;;12.75;6.55;;;384.10;1433.60;;;;;;5053809;28;20025;-68
2021/05/07 00:28:20;;;;;;;11.45;6.25;;;384.10;1433.60;;;;;;5054128;28;20108;-69
2021/05/07 00:30:46;;;;;;;14.02;6.13;;;384.10;1433.60;;;;;;5053937;28;20459;-69
2021/05/07 00:33:12;;;;;;;11.30;6.82;;;384.10;1433.60;;;;;;5035907;28;20025;-69
2021/05/07 00:35:38;;;;;;;12.80;6.07;;;384.10;1433.60;;;;;;5053953;28;20104;-69
2021/05/07 00:38:05;;;;;;;10.07;5.72;;;384.10;1433.60;;;;;;5053809;28;20079;-69
2021/05/07 00:40:31;;;;;;;9.05;5.40;;;384.10;1433.60;;;;;;5053748;28;20021;-69
2021/05/07 00:42:57;;;;;;;10.02;5.10;;;384.00;1459.20;;;;;;5054902;28;20029;-69
2021/05/07 00:45:24;;;;;;;7.63;4.72;;;384.10;1433.60;;;;;;5054315;28;20025;-69
2021/05/07 00:48:04;;;;;;;8.45;5.00;;;384.10;1459.20;;;;;;5054316;28;20025;-69
2021/05/07 00:50:32;;;;;;;8.85;4.28;;;384.00;1459.20;;;;;;5053665;28;20508;-69
2021/05/07 00:52:59;;;;;;;13.45;4.82;;;384.00;1459.20;;;;;;5053703;28;20024;-68
2021/05/07 00:55:29;;;;;;;8.57;5.05;;;384.10;1459.20;;;;;;5053304;28;20492;-69
2021/05/07 00:57:55;;;;;;;7.93;4.20;;;384.10;1459.20;;;;;;5053552;28;20021;-68
2021/05/07 01:00:23;;;;;;;10.00;4.97;;;384.10;1459.20;;;;;;5053363;28;20021;-68
2021/05/07 01:02:49;;;;;;;8.02;4.45;;;384.10;1459.20;;;;;;5053136;28;20481;-69
2021/05/07 01:05:15;;;;;;;11.98;4.60;;;384.10;1433.60;;;;;;5053620;28;20471;-69
2021/05/07 01:07:41;;;;;;;7.40;4.35;;;384.10;1459.20;;;;;;5053564;28;20102;-69
2021/05/07 01:10:10;;;;;;;7.03;4.13;;;384.10;1459.20;;;;;;5053620;28;20017;-69
2021/05/07 01:12:37;;;;;;;10.52;5.05;;;384.00;1459.20;;;;;;5036590;28;20025;-68
2021/05/07 01:15:11;;;;;;;9.68;5.05;;;384.10;1459.20;;;;;;5057567;28;20071;-68
2021/05/07 01:17:57;;;;;;;7.10;4.40;;;384.10;1459.20;;;;;;5057446;28;20071;-69
2021/05/07 01:20:28;;;;;;;9.00;4.10;;;384.10;1459.20;;;;;;5056621;28;20083;-68
2021/05/07 01:23:00;;;;;;;6.82;4.07;;;384.00;1459.20;;;;;;5057833;28;20124;-68
2021/05/07 01:25:29;;;;;;;7.80;4.32;;;384.10;1459.20;;;;;;5057638;28;20032;-68
2021/05/07 01:27:57;;;;;;;9.05;4.45;;;384.10;1459.20;;;;;;5057181;28;20148;-68
2021/05/07 01:30:31;;;;;;;9.00;4.22;;;384.00;1484.80;;;;;;5057177;28;20131;-68
2021/05/07 01:32:58;;;;;;;9.55;3.85;;;384.10;1459.20;;;;;;5057680;28;20021;-68
2021/05/07 01:35:30;;;;;;;9.25;3.97;;;384.00;1484.80;;;;;;5057554;28;20433;-68
2021/05/07 01:38:01;;;;;;;7.65;4.32;;;384.00;1459.20;;;;;;5057513;28;20063;-68
2021/05/07 01:40:29;;;;;;;10.45;4.70;;;384.00;1484.80;;;;;;5057140;28;20025;-69
2021/05/07 01:42:55;;;;;;;6.25;4.03;;;384.00;1484.80;;;;;;5056891;28;20445;-68
2021/05/07 01:45:26;;;;;;;7.45;3.97;;;384.00;1484.80;;;;;;5056993;28;20017;-68
2021/05/07 01:47:52;;;;;;;10.25;4.30;;;384.00;1484.80;;;;;;5056745;28;20474;-68
2021/05/07 01:50:22;;;;;;;8.32;4.18;;;384.00;1484.80;;;;;;5056624;28;20025;-68
2021/05/07 01:52:48;;;;;;;10.00;4.00;;;384.00;1484.80;;;;;;5056954;28;20021;-69
2021/05/07 01:55:17;;;;;;;9.25;4.05;;;384.00;1484.80;;;;;;5056663;28;20028;-69
2021/05/07 01:57:43;;;;;;;8.32;4.10;;;384.00;1484.80;;;;;;5056884;28;20366;-69
2021/05/07 02:00:13;;;;;;;7.43;3.95;;;359.30;1484.80;;;;;;5056947;28;20021;-68
2021/05/07 02:02:40;;;;;;;9.35;4.03;;;359.30;1510.40;;;;;;5056508;28;20036;-69
2021/05/07 02:05:07;;;;;;;7.40;3.40;;;359.30;1510.40;;;;;;5056358;28;20032;-69
2021/05/07 02:07:33;;;;;;;8.60;4.32;;;359.30;1510.40;;;;;;5056302;28;20035;-69
2021/05/07 02:09:59;;;;;;;9.55;3.92;;;359.30;1510.40;;;;;;5056319;28;20033;-68
2021/05/07 02:12:26;;;;;;;10.55;3.85;;;359.30;1536.00;;;;;;5056584;28;20029;-69
2021/05/07 02:14:52;;;;;;;5.80;3.67;;;359.30;1536.00;;;;;;5056144;28;20036;-68
2021/05/07 02:17:18;;;;;;;5.80;3.45;;;359.30;1536.00;;;;;;5056837;28;20025;-68
2021/05/07 02:19:44;;;;;;;6.80;3.03;;;359.30;1536.00;;;;;;5056183;28;20392;-68
2021/05/07 02:22:10;;;;;;;8.15;3.88;;;359.30;1536.00;;;;;;5056326;28;20072;-68
2021/05/07 02:24:36;;;;;;;9.70;3.45;;;359.30;1536.00;;;;;;5055450;28;20100;-68
2021/05/07 02:27:03;;;;;;;8.57;3.53;;;384.00;1536.00;;;;;;5056552;28;20113;-68
2021/05/07 02:29:30;;;;;;;8.35;3.58;;;384.00;1536.00;;;;;;5055960;28;20052;-69
2021/05/07 02:31:56;;;;;;;5.70;3.20;;;384.10;1536.00;;;;;;5056168;28;20104;-68
2021/05/07 02:34:22;;;;;;;11.45;4.20;;;384.00;1536.00;;;;;;5056056;28;20105;-68
2021/05/07 02:36:48;;;;;;;6.50;3.85;;;384.00;1536.00;;;;;;5056095;28;20025;-68
2021/05/07 02:39:16;;;;;;;9.20;3.92;;;384.00;1536.00;;;;;;5055795;28;20100;-69
2021/05/07 02:41:43;;;;;;;5.53;3.47;;;384.00;1536.00;;;;;;5055618;28;20033;-68
2021/05/07 02:44:10;;;;;;;5.65;3.70;;;384.00;1536.00;;;;;;5055911;28;20021;-69
2021/05/07 02:46:37;;;;;;;5.95;3.70;;;384.00;1561.60;;;;;;5056089;28;20021;-69
2021/05/07 02:49:05;;;;;;;6.13;3.33;;;384.00;1561.60;;;;;;5055571;28;20037;-68
2021/05/07 02:51:31;;;;;;;7.18;3.55;;;384.00;1561.60;;;;;;5055466;28;20465;-69
2021/05/07 02:53:57;;;;;;;8.18;3.75;;;384.10;1561.60;;;;;;5037692;28;20088;-69
2021/05/07 02:56:24;;;;;;;8.63;3.50;;;384.10;1561.60;;;;;;5055544;28;20477;-69
2021/05/07 02:58:50;;;;;;;10.90;3.47;;;384.10;1561.60;;;;;;5055451;28;20024;-68
2021/05/07 03:01:17;;;;;;;7.70;3.67;;;384.10;1561.60;;;;;;5055534;28;20025;-69
2021/05/07 03:03:43;;;;;;;8.80;3.17;;;384.00;1561.60;;;;;;5055371;28;20071;-69
2021/05/07 03:06:09;;;;;;;6.80;3.25;;;384.10;1561.60;;;;;;5055246;28;20048;-69
2021/05/07 03:08:37;;;;;;;9.80;3.60;;;384.10;1561.60;;;;;;5055243;28;20066;-69
2021/05/07 03:11:03;;;;;;;7.72;3.45;;;384.10;1561.60;;;;;;5055612;28;20130;-69
2021/05/07 03:13:29;;;;;;;7.03;3.22;;;384.10;1561.60;;;;;;5055577;28;20428;-69
2021/05/07 03:15:55;;;;;;;6.28;3.92;;;384.20;1561.60;;;;;;5055546;28;20036;-68
2021/05/07 03:18:22;;;;;;;7.63;3.47;;;384.10;1561.60;;;;;;5055384;28;20462;-69
2021/05/07 03:20:49;;;;;;;9.35;3.70;;;384.20;1561.60;;;;;;5037536;28;20017;-69
2021/05/07 03:23:16;;;;;;;10.38;3.38;;;384.20;1561.60;;;;;;5055301;28;20064;-69
2021/05/07 03:25:42;;;;;;;6.68;3.10;;;384.20;1561.60;;;;;;5037211;28;20377;-68
2021/05/07 03:28:09;;;;;;;8.00;3.53;;;384.20;1587.20;;;;;;5054933;28;20021;-70
2021/05/07 03:30:36;;;;;;;6.93;3.30;;;384.20;1587.20;;;;;;5054886;28;20048;-69
2021/05/07 03:33:04;;;;;;;6.65;3.47;;;384.20;1561.60;;;;;;5054927;28;20060;-69
2021/05/07 03:35:31;;;;;;;5.25;3.40;;;384.20;1587.20;;;;;;5054942;28;20021;-68
2021/05/07 03:37:57;;;;;;;7.97;3.05;;;384.30;1587.20;;;;;;5054673;28;20036;-69
2021/05/07 03:40:23;;;;;;;7.45;3.42;;;384.20;1587.20;;;;;;5054587;28;20029;-68
2021/05/07 03:42:49;;;;;;;9.35;3.95;;;384.30;1587.20;;;;;;5054455;28;20037;-68
2021/05/07 03:45:16;;;;;;;6.10;3.42;;;384.40;1587.20;;;;;;5054764;28;20488;-69
2021/05/07 03:47:43;;;;;;;5.63;3.67;;;384.40;1587.20;;;;;;5054925;28;20057;-69
2021/05/07 03:50:11;;;;;;;7.32;3.63;;;384.40;1587.20;;;;;;5054503;28;20146;-69
2021/05/07 03:52:37;;;;;;;6.38;3.83;;;384.50;1587.20;;;;;;5054735;28;20029;-69
2021/05/07 03:55:05;;;;;;;10.30;5.00;;;384.50;1587.20;;;;;;5054672;28;20033;-69
2021/05/07 03:57:31;;;;;;;14.73;6.00;;;384.50;1587.20;;;;;;5054507;28;20029;-69
2021/05/07 03:59:57;;;;;;;14.77;8.07;;;384.60;1587.20;;;;;;5054248;28;20040;-69
2021/05/07 04:02:26;;;;;;;16.58;8.80;;;384.50;1587.20;;;;;;5054151;28;20033;-69
2021/05/07 04:04:53;;;;;;;17.25;8.88;;;384.60;1587.20;;;;;;5054737;28;20036;-69
2021/05/07 04:07:20;;;;;;;12.63;7.50;;;384.60;1587.20;;;;;;5054559;28;20033;-69
2021/05/07 04:10:09;;;;;;;14.32;6.10;;;384.60;1587.20;;;;;;5036214;28;20031;-68
2021/05/07 04:15:05;;;;;;;11.88;5.30;;;384.70;1612.80;;;;;;5054555;28;20053;-68
2021/05/07 04:17:30;;;;;;;15.80;4.97;;;384.70;1587.20;;;;;;5054199;28;20055;-69
2021/05/07 04:19:56;;;;;;;9.48;4.28;;;384.70;1587.20;;;;;;5054123;28;20469;-68
2021/05/07 04:22:22;;;;;;;9.90;4.30;;;384.80;1561.60;;;;;;5054019;28;20540;-68
2021/05/07 04:24:48;;;;;;;7.18;3.50;;;384.80;1587.20;;;;;;5053791;28;20024;-69
2021/05/07 04:27:14;;;;;;;8.32;3.75;;;384.80;1561.60;;;;;;5053804;28;20546;-69
2021/05/07 04:29:41;;;;;;;7.60;3.10;;;384.80;1587.20;;;;;;5053568;28;20061;-69
2021/05/07 04:32:07;;;;;;;7.25;3.50;;;384.80;1561.60;;;;;;5053580;28;20039;-69
2021/05/07 04:34:33;;;;;;;7.95;3.90;;;384.80;1587.20;;;;;;5053714;28;20111;-69
2021/05/07 04:36:59;;;;;;;7.65;3.70;;;384.80;1587.20;;;;;;5053605;28;20033;-68
2021/05/07 04:39:25;;;;;;;6.25;4.03;;;384.80;1587.20;;;;;;5053518;28;20048;-68
2021/05/07 04:41:51;;;;;;;10.93;4.00;;;384.80;1561.60;;;;;;5053456;28;20090;-68
2021/05/07 04:44:17;;;;;;;9.55;3.88;;;384.80;1587.20;;;;;;5054542;28;20029;-68
2021/05/07 04:46:42;;;;;;;9.13;3.80;;;384.80;1587.20;;;;;;5053089;28;20493;-68
2021/05/07 04:49:08;;;;;;;9.68;3.72;;;384.80;1587.20;;;;;;5053201;28;20029;-69
2021/05/07 04:51:34;;;;;;;6.65;3.50;;;384.80;1612.80;;;;;;5053477;28;20037;-68
2021/05/07 04:54:01;;;;;;;5.43;3.75;;;384.90;1612.80;;;;;;5053447;28;20099;-68
2021/05/07 04:56:27;;;;;;;9.35;3.30;;;384.90;1612.80;;;;;;5053647;28;20029;-69
2021/05/07 04:58:53;;;;;;;10.77;3.30;;;409.60;1638.40;;;;;;5053591;28;20032;-68
2021/05/07 05:01:19;;;;;;;9.48;3.47;;;409.60;1638.40;;;;;;5053207;28;20424;-68
2021/05/07 05:03:45;;;;;;;7.22;3.10;;;409.60;1664.00;;;;;;5053334;28;20033;-68
2021/05/07 05:06:11;;;;;;;14.15;8.25;;;409.60;1664.00;;;;;;5053474;28;20052;-68
2021/05/07 05:08:37;;;;;;;34.63;21.33;;;409.60;1638.40;;;;;;5053185;28;20389;-69
2021/05/07 05:11:03;;;;;;;51.60;34.38;;;409.70;1638.40;;;;;;5053458;28;20029;-68
2021/05/07 05:13:29;;;;;;;70.10;41.42;;;409.70;1638.40;;;;;;5053393;28;20465;-68
2021/05/07 05:15:56;;;;;;;72.57;39.67;;;409.70;1638.40;;;;;;5053134;28;20032;-69
2021/05/07 05:18:32;;;;;;;36.90;18.63;;;409.70;1638.40;;;;;;5053222;28;20029;-68
2021/05/07 05:21:03;;;;;;;21.33;9.63;;;409.70;1638.40;;;;;;5053435;28;20121;-68
2021/05/07 05:23:32;;;;;;;16.33;4.97;;;409.80;1664.00;;;;;;5053484;28;20067;-68
2021/05/07 05:25:59;;;;;;;14.35;4.32;;;409.80;1664.00;;;;;;5053587;28;20025;-68
2021/05/07 05:28:26;;;;;;;10.80;4.05;;;409.80;1664.00;;;;;;5053217;28;20029;-68
2021/05/07 05:30:53;;;;;;;9.82;4.95;;;409.80;1664.00;;;;;;5053332;28;20033;-69
2021/05/07 05:33:19;;;;;;;9.63;4.40;;;410.00;1664.00;;;;;;5053223;28;20025;-69
2021/05/07 05:35:46;;;;;;;16.83;5.30;;;410.00;1689.60;;;;;;5053383;28;20017;-69
2021/05/07 05:38:15;;;;;;;11.27;5.63;;;410.00;1689.60;;;;;;5053186;28;20025;-69
2021/05/07 05:40:42;;;;;;;13.73;6.60;;;410.00;1689.60;;;;;;5053068;28;20024;-69
2021/05/07 05:43:08;;;;;;;14.88;6.63;;;410.10;1664.00;;;;;;5052895;28;20037;-68
2021/05/07 05:45:34;;;;;;;11.88;7.00;;;410.10;1664.00;;;;;;5053318;28;20031;-69
2021/05/07 05:48:12;;;;;;;15.30;6.45;;;410.20;1664.00;;;;;;5052908;28;20087;-68
2021/05/07 05:50:41;;;;;;;12.32;6.45;;;410.30;1689.60;;;;;;5052959;28;20119;-69
2021/05/07 05:53:08;;;;;;;16.42;5.88;;;410.40;1664.00;;;;;;5052868;28;20021;-68
2021/05/07 05:55:36;;;;;;;13.27;6.72;;;410.40;1689.60;;;;;;5052847;28;20017;-69
2021/05/07 05:58:02;;;;;;;14.57;7.13;;;410.50;1664.00;;;;;;5053144;28;20032;-69
2021/05/07 06:00:28;;;;;;;11.73;5.20;;;410.40;1664.00;;;;;;5055197;28;20033;-69
2021/05/07 06:02:54;;;;;;;17.10;5.72;;;410.50;1664.00;;;;;;5056446;28;20116;-69
2021/05/07 06:05:22;;;;;;;15.52;5.55;;;410.50;1638.40;;;;;;5056483;28;20021;-69
2021/05/07 06:07:48;;;;;;;11.75;4.82;;;435.20;1664.00;;;;;;5056346;28;20385;-69
2021/05/07 06:10:16;;;;;;;17.85;6.95;;;435.20;1612.80;;;;;;5056262;28;20029;-69
2021/05/07 06:12:43;;;;;;;18.77;7.32;;;435.30;1638.40;;;;;;5061595;28;20021;-69
2021/05/07 06:15:10;;;;;;;13.80;6.55;;;435.40;1638.40;;;;;;5056144;28;20484;-69
2021/05/07 06:17:37;;;;;;;14.50;5.65;;;435.50;1638.40;;;;;;5056173;28;20027;-69
2021/05/07 06:20:05;;;;;;;10.70;7.40;;;435.50;1638.40;;;;;;5056264;28;20025;-69
2021/05/07 06:22:33;;;;;;;12.35;7.25;;;435.60;1612.80;;;;;;5043257;28;20044;-70
2021/05/07 06:24:59;;;;;;;11.23;6.00;;;435.70;1612.80;;;;;;5066297;28;20028;-70
2021/05/07 06:27:26;;;;;;;12.18;8.65;;;435.70;1612.80;;;;;;5065851;28;20028;-70
2021/05/07 06:29:52;;;;;;;20.25;9.38;;;435.80;1612.80;;;;;;5063610;28;20431;-69
2021/05/07 06:32:18;;;;;;;13.05;5.60;;;435.90;1612.80;;;;;;5064269;28;20029;-68
2021/05/07 06:34:44;;;;;;;10.25;4.15;;;435.90;1587.20;;;;;;5064076;28;20146;-68
2021/05/07 06:37:12;;;;;;;11.63;4.05;;;435.90;1587.20;;;;;;5066406;28;20100;-69
2021/05/07 06:39:38;;;;;;;11.85;3.58;;;435.90;1587.20;;;;;;5065528;28;20055;-70
2021/05/07 06:42:05;;;;;;;11.02;3.60;;;436.00;1587.20;;;;;;5068089;28;20060;-69
2021/05/07 06:44:31;;;;;;;7.10;2.83;;;436.00;1536.00;;;;;;5063368;28;20025;-69
2021/05/07 06:46:57;;;;;;;14.10;3.15;;;436.10;1561.60;;;;;;5065568;28;20021;-69
2021/05/07 06:49:23;;;;;;;10.80;3.28;;;436.10;1561.60;;;;;;5064613;28;20028;-69
2021/05/07 06:51:50;;;;;;;9.68;3.00;;;460.80;1587.20;;;;;;5061882;28;20025;-68
2021/05/07 06:54:17;;;;;;;7.60;2.70;;;460.80;1612.80;;;;;;5060130;28;20039;-69
2021/05/07 06:56:43;;;;;;;6.38;2.67;;;460.80;1843.20;;;;;;5065215;28;20480;-68
2021/05/07 06:59:09;;;;;;;9.18;2.92;;;460.90;1587.20;;;;;;5063750;28;20024;-69
2021/05/07 07:01:37;;;;;;;8.57;2.97;;;460.90;1587.20;;;;;;5063506;28;20040;-69
2021/05/07 07:04:04;;;;;;;7.35;2.92;;;461.00;1561.60;;;;;;5063092;28;20036;-69
2021/05/07 07:06:30;;;;;;;9.68;2.80;;;461.00;1587.20;;;;;;5064129;28;20082;-69
2021/05/07 07:08:56;;;;;;;6.43;2.75;;;461.10;1561.60;;;;;;5064716;28;20028;-69
2021/05/07 07:11:22;;;;;;;12.27;2.85;;;461.20;1561.60;;;;;;5062213;28;20020;-69
2021/05/07 07:13:48;;;;;;;7.90;2.60;;;461.30;1561.60;;;;;;5063469;28;20106;-69
2021/05/07 07:16:17;;;;;;;7.57;3.10;;;461.30;1561.60;;;;;;5063283;28;20055;-68
2021/05/07 07:18:43;;;;;;;7.57;3.20;;;461.40;1536.00;;;;;;5057441;28;20025;-70
2021/05/07 07:21:10;;;;;;;10.45;2.90;;;461.50;1536.00;;;;;;5054922;28;20052;-68
2021/05/07 07:23:37;;;;;;;5.22;2.10;;;461.50;1510.40;;;;;;5054911;28;20029;-68
2021/05/07 07:26:05;;;;;;;15.35;2.88;;;461.50;1484.80;;;;;;5054777;28;20091;-68
2021/05/07 07:28:37;;;;;;;8.27;2.72;;;461.50;1510.40;;;;;;5054593;28;20112;-68
2021/05/07 07:31:04;;;;;;;10.32;2.38;;;461.50;1484.80;;;;;;5054827;28;20025;-68
2021/05/07 07:33:31;;;;;;;5.30;2.53;;;461.60;1484.80;;;;;;5054703;28;20031;-68
2021/05/07 07:35:57;;;;;;;4.53;2.63;;;461.60;1484.80;;;;;;5055258;28;20077;-69
2021/05/07 07:38:25;;;;;;;7.97;2.38;;;461.60;1459.20;;;;;;5040376;28;20041;-68
2021/05/07 07:40:51;;;;;;;9.40;2.45;;;461.60;1459.20;;;;;;5064031;28;20017;-67
2021/05/07 07:43:18;;;;;;;6.85;2.70;;;461.60;1459.20;;;;;;5060602;28;20068;-68
2021/05/07 07:45:45;;;;;;;8.30;2.72;;;486.40;1484.80;;;;;;5063058;28;20090;-67
2021/05/07 07:48:11;;;;;;;7.95;2.90;;;486.40;1459.20;;;;;;5061404;28;20017;-68
2021/05/07 07:50:37;;;;;;;7.35;2.58;;;486.40;1459.20;;;;;;5063157;28;20025;-68
2021/05/07 07:53:04;;;;;;;9.32;2.58;;;486.50;1484.80;;;;;;5058887;28;20020;-68
2021/05/07 07:55:29;;;;;;;5.15;1.98;;;486.60;1433.60;;;;;;5060636;28;20029;-68
2021/05/07 07:57:55;;;;;;;6.00;2.10;;;486.70;1433.60;;;;;;5054256;28;20469;-67
2021/05/07 08:00:21;;;;;;;5.18;2.47;;;486.80;1433.60;;;;;;5054273;28;20021;-67
2021/05/07 08:02:47;;;;;;;10.15;2.20;;;486.80;1433.60;;;;;;5054190;28;20041;-68
2021/05/07 08:05:14;;;;;;;7.90;1.98;;;486.90;1433.60;;;;;;5054189;28;20040;-69
2021/05/07 08:07:40;;;;;;;4.95;2.20;;;487.00;1382.40;;;;;;5059348;28;20025;-68
2021/05/07 08:10:07;;;;;;;7.25;2.08;;;487.00;1382.40;;;;;;5071741;28;20028;-69
2021/05/07 08:12:33;;;;;;;13.25;1.92;;;487.00;1382.40;;;;;;5072333;28;20025;-68
2021/05/07 08:14:59;;;;;;;9.50;2.53;;;487.10;1331.20;;;;;;5073796;28;20024;-68
2021/05/07 08:17:25;;;;;;;48.08;31.33;;;487.10;1356.80;;;;;;5073772;28;20035;-68
2021/05/07 08:19:52;;;;;;;7.38;3.10;;;487.10;1356.80;;;;;;5073786;28;20020;-68
2021/05/07 08:22:17;;;;;;;5.65;1.90;;;487.10;1331.20;;;;;;5072913;28;20029;-68
2021/05/07 08:24:46;;;;;;;8.88;2.10;;;487.10;1305.60;;;;;;5073944;28;20032;-68
2021/05/07 08:27:12;;;;;;;8.30;2.00;;;487.00;1331.20;;;;;;5073612;28;20397;-68
2021/05/07 08:29:38;;;;;;;4.47;1.70;;;487.00;1331.20;;;;;;5073472;28;20036;-68
2021/05/07 08:32:04;;;;;;;11.02;2.22;;;487.00;1356.80;;;;;;5067615;28;20042;-67
2021/05/07 08:34:30;;;;;;;7.80;1.95;;;486.90;1331.20;;;;;;5060293;28;20025;-67
2021/05/07 08:36:56;;;;;;;6.05;2.22;;;487.10;1331.20;;;;;;5045180;28;20017;-67
2021/05/07 08:39:22;;;;;;;10.05;2.30;;;487.00;1331.20;;;;;;5063677;28;20033;-68
2021/05/07 08:41:49;;;;;;;38.47;12.48;;;486.90;1331.20;;;;;;5061793;28;20017;-66
2021/05/07 08:44:16;;;;;;;13.10;5.50;;;487.00;1331.20;;;;;;5063275;28;20036;-69
2021/05/07 08:46:43;;;;;;;17.95;5.68;;;486.90;1331.20;;;;;;5063692;28;20104;-67
2021/05/07 08:49:10;;;;;;;27.13;9.95;;;486.90;1331.20;;;;;;5061780;28;20025;-67
2021/05/07 08:51:39;;;;;;;33.15;20.98;;;486.90;1331.20;;;;;;5063103;28;20419;-66
2021/05/07 08:54:07;;;;;;;37.30;28.95;;;486.90;1356.80;;;;;;5053233;28;20035;-67
2021/05/07 08:56:35;;;;;;;30.83;11.65;;;486.90;1331.20;;;;;;5053281;28;20070;-66
2021/05/07 08:59:01;;;;;;;22.23;7.70;;;486.90;1356.80;;;;;;5053218;28;20055;-66
2021/05/07 09:01:41;;;;;;;26.58;8.48;;;486.90;1356.80;;;;;;5053067;28;20036;-66
2021/05/07 09:04:12;;;;;;;11.82;4.88;;;486.90;1382.40;;;;;;5053455;28;20021;-66
2021/05/07 09:06:52;;;;;;;9.63;2.70;;;486.80;1382.40;;;;;;5035274;28;20021;-67
2021/05/07 09:09:36;;;;;;;6.78;2.33;;;486.90;1382.40;;;;;;5053182;28;20377;-67
2021/05/07 09:12:04;;;;;;;9.25;2.40;;;486.90;1382.40;;;;;;5053712;28;20025;-67
2021/05/07 09:14:30;;;;;;;10.23;3.03;;;486.90;1356.80;;;;;;5053135;28;20063;-67
2021/05/07 09:17:02;;;;;;;6.22;2.95;;;486.80;1382.40;;;;;;5035196;28;20021;-66
2021/05/07 09:19:29;;;;;;;6.18;2.55;;;486.90;1356.80;;;;;;5053103;28;20021;-67
2021/05/07 09:21:56;;;;;;;10.57;2.70;;;486.90;1382.40;;;;;;5052890;28;20036;-67
2021/05/07 09:24:35;;;;;;;13.40;3.83;;;486.90;1382.40;;;;;;5053247;28;20025;-68
2021/05/07 09:27:02;;;;;;;11.27;5.15;;;486.90;1382.40;;;;;;5053017;28;20028;-67
2021/05/07 09:29:32;;;;;;;15.98;7.28;;;486.90;1382.40;;;;;;5052978;28;20401;-67
2021/05/07 09:32:03;;;;;;;38.83;13.05;;;486.90;1382.40;;;;;;5052929;28;20040;-68
2021/05/07 09:34:36;;;;;;;35.03;12.15;;;486.90;1408.00;;;;;;5055519;28;20021;-67
2021/05/07 09:37:17;;;;;;;20.77;6.68;;;486.90;1408.00;;;;;;5062334;28;20025;-67
2021/05/07 09:39:43;;;;;;;34.90;10.90;;;486.90;1408.00;;;;;;5058948;28;20036;-66
2021/05/07 09:42:20;;;;;;;12.90;5.20;;;486.90;1408.00;;;;;;5058755;28;20028;-67
2021/05/07 09:44:46;;;;;;;18.10;8.65;;;486.90;1459.20;;;;;;5058199;28;20063;-67
2021/05/07 09:47:14;;;;;;;37.20;18.33;;;486.90;1459.20;;;;;;5062261;28;20028;-67
2021/05/07 09:49:40;;;;;;;9.85;3.92;;;486.90;1484.80;;;;;;5074308;28;20503;-67
2021/05/07 09:52:06;;;;;;;15.48;5.72;;;486.80;1510.40;;;;;;5073910;28;20464;-67
2021/05/07 09:54:32;;;;;;;8.73;3.53;;;486.80;1536.00;;;;;;5067072;28;20016;-67
2021/05/07 09:56:59;;;;;;;10.27;6.38;;;486.80;1510.40;;;;;;5068438;28;20019;-66
2021/05/07 09:59:25;;;;;;;10.98;5.88;;;486.80;1561.60;;;;;;5058546;28;20451;-69
2021/05/07 10:01:51;;;;;;;9.00;5.97;;;486.70;1587.20;;;;;;5076674;28;20063;-67
2021/05/07 10:04:17;;;;;;;11.75;6.00;;;486.70;1612.80;;;;;;5076373;28;20048;-68
2021/05/07 10:06:44;;;;;;;16.23;6.57;;;486.70;1638.40;;;;;;5076340;28;20020;-67
2021/05/07 10:09:11;;;;;;;13.25;7.75;;;486.70;1612.80;;;;;;5076867;28;20365;-69
2021/05/07 10:11:42;;;;;;;13.15;7.93;;;486.70;1715.20;;;;;;5075961;28;20033;-68
2021/05/07 10:14:15;;;;;;;12.90;8.07;;;486.60;1715.20;;;;;;5076635;28;20031;-67
2021/05/07 10:16:42;;;;;;;16.38;7.47;;;486.60;1689.60;;;;;;5075900;28;20074;-67
2021/05/07 10:19:11;;;;;;;11.40;7.57;;;486.60;1715.20;;;;;;5076259;28;20029;-68
2021/05/07 10:21:40;;;;;;;12.07;6.95;;;486.50;1715.20;;;;;;5076482;28;20047;-67
2021/05/07 10:24:08;;;;;;;12.63;7.55;;;486.50;1715.20;;;;;;5076042;28;20032;-67
2021/05/07 10:26:54;;;;;;;15.18;7.22;;;486.40;1689.60;;;;;;5076069;28;20028;-67
2021/05/07 10:29:27;;;;;;;19.80;8.45;;;461.60;1715.20;;;;;;5075610;28;20056;-68
2021/05/07 10:31:55;;;;;;;17.83;7.15;;;461.60;1689.60;;;;;;5058900;28;20021;-67
2021/05/07 10:34:23;;;;;;;13.25;7.32;;;461.50;1715.20;;;;;;5076498;28;20564;-67
2021/05/07 10:36:52;;;;;;;19.63;7.57;;;461.60;1689.60;;;;;;5075844;28;20111;-67
2021/05/07 10:39:20;;;;;;;15.50;7.05;;;461.60;1715.20;;;;;;5075744;28;20063;-67
2021/05/07 10:41:47;;;;;;;11.60;6.15;;;461.50;1715.20;;;;;;5057610;28;20028;-67
2021/05/07 10:44:14;;;;;;;15.60;6.68;;;461.40;1715.20;;;;;;5075633;28;20036;-69
2021/05/07 10:46:42;;;;;;;10.70;6.35;;;461.40;1740.80;;;;;;5074805;28;20126;-67
2021/05/07 10:49:09;;;;;;;9.02;6.25;;;461.40;1740.80;;;;;;5066755;28;20028;-66
2021/05/07 10:51:35;;;;;;;9.80;5.85;;;461.40;1740.80;;;;;;5060873;28;20496;-67
2021/05/07 10:54:08;;;;;;;27.02;7.72;;;461.30;1740.80;;;;;;5055654;28;20055;-67
2021/05/07 10:56:36;;;;;;;41.58;8.85;;;461.30;1740.80;;;;;;5040251;28;20109;-66
2021/05/07 10:59:17;;;;;;;13.80;5.25;;;461.30;1766.40;;;;;;5074909;28;20032;-66
2021/05/07 11:01:57;;;;;;;13.68;5.82;;;461.20;1766.40;;;;;;5050789;28;20059;-65
2021/05/07 11:04:24;;;;;;;9.38;5.22;;;461.20;1766.40;;;;;;5055498;28;20025;-67
2021/05/07 11:07:00;;;;;;;12.07;4.90;;;461.20;1740.80;;;;;;5037744;28;20068;-67
2021/05/07 11:09:27;;;;;;;14.85;5.72;;;461.20;1740.80;;;;;;5055402;28;20017;-67
2021/05/07 11:12:03;;;;;;;9.82;5.75;;;461.20;1740.80;;;;;;5059858;28;20115;-66
2021/05/07 11:14:30;;;;;;;10.23;5.85;;;461.20;1766.40;;;;;;5059086;28;20098;-67
2021/05/07 11:16:55;;;;;;;10.88;5.68;;;461.20;1792.00;;;;;;5063671;28;20020;-67
2021/05/07 11:19:30;;;;;;;12.40;5.22;;;461.20;1817.60;;;;;;5060547;28;20549;-67
2021/05/07 11:21:58;;;;;;;8.48;4.38;;;461.00;1843.20;;;;;;5055015;28;20512;-67
2021/05/07 11:24:27;;;;;;;6.93;4.32;;;461.10;1817.60;;;;;;5055003;28;20025;-67
2021/05/07 11:26:53;;;;;;;7.93;4.90;;;460.90;1843.20;;;;;;5055137;28;20025;-67
2021/05/07 11:29:34;;;;;;;11.00;5.13;;;460.90;1843.20;;;;;;5054660;28;20098;-68
2021/05/07 11:32:19;;;;;;;13.40;4.28;;;460.90;1843.20;;;;;;5054930;28;20048;-68
2021/05/07 11:34:52;;;;;;;13.32;4.25;;;460.90;1843.20;;;;;;5054799;28;20109;-67
2021/05/07 11:37:18;;;;;;;12.95;3.63;;;460.80;1817.60;;;;;;5036854;28;20021;-68
2021/05/07 11:39:58;;;;;;;7.43;3.53;;;460.80;1843.20;;;;;;5063574;28;20056;-67
2021/05/07 11:42:33;;;;;;;7.85;4.50;;;436.10;1817.60;;;;;;5062214;28;20032;-68
2021/05/07 11:45:00;;;;;;;8.73;4.10;;;436.10;1817.60;;;;;;5055775;28;20090;-68
2021/05/07 11:47:37;;;;;;;7.35;3.42;;;436.10;1817.60;;;;;;5054555;28;20482;-67
2021/05/07 11:50:05;;;;;;;6.50;3.35;;;435.90;1817.60;;;;;;5054786;28;20488;-67
2021/05/07 11:52:41;;;;;;;9.45;4.10;;;435.90;1817.60;;;;;;5054493;28;20024;-67
2021/05/07 11:55:23;;;;;;;5.25;3.25;;;436.00;1792.00;;;;;;5058977;28;20124;-67
2021/05/07 11:58:07;;;;;;;7.55;3.08;;;435.90;1792.00;;;;;;5052534;28;20100;-67
2021/05/07 12:00:34;;;;;;;;;;;435.80;1792.00;;;;;;5053709;28;20017;-67
2021/05/07 12:03:17;;;;;;;9.48;2.90;;;435.70;1817.60;;;;;;5052864;28;20280;-67
2021/05/07 12:05:45;;;;;;;7.57;3.58;;;435.60;1817.60;;;;;;5036499;28;20461;-67
2021/05/07 12:08:11;;;;;;;15.48;7.00;;;435.60;1792.00;;;;;;5054206;28;20029;-67
2021/05/07 12:11:41;;;;;;;110.93;58.15;;;435.60;1843.20;;;;;;5112309;27;20389;-71
2021/05/07 12:14:12;;;;;;;16.30;6.07;;;435.60;1792.00;;;;;;5110081;28;20024;-71
2021/05/07 12:16:39;;;;;;;11.50;5.00;;;435.50;1792.00;;;;;;5111392;28;20020;-69
2021/05/07 12:19:06;;;;;;;17.27;7.78;;;435.40;1817.60;;;;;;5111628;28;20498;-70
2021/05/07 12:21:45;;;;;;;21.70;12.13;;;435.50;1792.00;;;;;;5111420;28;20024;-70